createdAt,value
2019-05-10T00:00:20.372Z,98.70
2019-05-10T00:03:09.122Z,92.33
2019-05-10T00:05:57.672Z,98.67
2019-05-10T00:08:46.025Z,112.03
2019-05-10T00:11:36.415Z,111.57
2019-05-10T00:14:10.632Z,94.50
2019-05-10T00:16:40.958Z,94.45
2019-05-10T00:19:11.484Z,95.67
2019-05-10T00:21:42.423Z,97.40
2019-05-10T00:24:12.743Z,92.85
2019-05-10T00:26:43.684Z,92.57
2019-05-10T00:29:14.003Z,88.10
2019-05-10T00:31:44.737Z,92.47
2019-05-10T00:34:15.266Z,84.17
2019-05-10T00:36:45.593Z,85.83
2019-05-10T00:39:19.244Z,83.77
2019-05-10T00:41:48.289Z,85.93
2019-05-10T00:44:18.818Z,88.30
2019-05-10T00:46:49.943Z,82.93
2019-05-10T00:49:20.288Z,90.87
2019-05-10T00:51:51.222Z,90.57
2019-05-10T00:54:21.951Z,91.40
2019-05-10T00:56:52.485Z,86.87
2019-05-10T00:59:22.798Z,85.60
2019-05-10T01:01:53.138Z,81.93
2019-05-10T01:04:23.867Z,86.43
2019-05-10T01:06:56.399Z,81.20
2019-05-10T01:09:26.639Z,88.13
2019-05-10T01:11:57.392Z,79.87
2019-05-10T01:14:28.037Z,86.07
2019-05-10T01:16:58.351Z,78.50
2019-05-10T01:19:28.829Z,86.50
2019-05-10T01:21:58.869Z,82.17
2019-05-10T01:24:28.912Z,80.73
2019-05-10T01:26:58.959Z,80.83
2019-05-10T01:29:29.310Z,76.07
2019-05-10T01:31:59.850Z,74.03
2019-05-10T01:34:29.933Z,80.60
2019-05-10T01:37:00.061Z,88.37
2019-05-10T01:39:30.119Z,77.87
2019-05-10T01:42:00.104Z,82.97
2019-05-10T01:44:30.185Z,81.97
2019-05-10T01:47:00.215Z,74.23
2019-05-10T01:52:24.800Z,84.60
2019-05-10T01:54:55.321Z,79.67
2019-05-10T01:57:25.637Z,91.33
2019-05-10T01:59:56.174Z,88.80
2019-05-10T02:02:26.394Z,90.77
2019-05-10T02:04:57.231Z,80.77
2019-05-10T02:07:27.764Z,89.43
2019-05-10T02:09:58.294Z,85.63
2019-05-10T02:12:28.821Z,84.57
2019-05-10T02:14:59.145Z,87.17
2019-05-10T02:17:41.470Z,93.17
2019-05-10T02:20:11.673Z,85.83
2019-05-10T02:22:42.813Z,92.50
2019-05-10T02:25:13.439Z,90.73
2019-05-10T02:27:44.070Z,84.47
2019-05-10T02:30:14.738Z,81.83
2019-05-10T02:32:45.747Z,82.23
2019-05-10T02:35:16.274Z,92.40
2019-05-10T02:37:46.805Z,92.20
2019-05-10T02:40:17.484Z,88.73
2019-05-10T02:42:47.865Z,83.43
2019-05-10T02:45:18.590Z,86.50
2019-05-10T02:47:55.061Z,81.73
2019-05-10T02:50:25.592Z,81.90
2019-05-10T02:52:55.915Z,89.63
2019-05-10T02:55:26.770Z,90.73
2019-05-10T02:57:57.378Z,86.77
2019-05-10T03:00:28.319Z,92.83
2019-05-10T03:03:00.101Z,95.10
2019-05-10T03:05:33.064Z,79.13
2019-05-10T03:08:04.094Z,88.47
2019-05-10T03:10:36.988Z,85.73
2019-05-10T03:13:08.974Z,87.47
2019-05-10T03:15:39.478Z,86.50
2019-05-10T03:18:10.208Z,93.90
2019-05-10T03:20:40.947Z,93.63
2019-05-10T03:23:11.479Z,97.27
2019-05-10T03:25:41.795Z,92.00
2019-05-10T03:28:12.118Z,97.88
2019-05-10T03:30:42.651Z,107.80
2019-05-10T03:33:13.644Z,118.17
2019-05-10T03:35:44.118Z,119.40
2019-05-10T03:38:14.798Z,109.27
2019-05-10T03:40:45.175Z,119.47
2019-05-10T03:43:15.704Z,102.33
2019-05-10T03:45:46.639Z,109.03
2019-05-10T03:48:17.164Z,112.57
2019-05-10T03:50:47.698Z,109.63
2019-05-10T03:53:18.222Z,111.73
2019-05-10T03:55:49.159Z,112.27
2019-05-10T03:58:19.694Z,103.55
2019-05-10T04:00:50.012Z,95.73
2019-05-10T04:03:21.975Z,97.00
2019-05-10T04:05:52.504Z,88.92
2019-05-10T04:08:24.469Z,89.00
2019-05-10T04:10:54.788Z,81.73
2019-05-10T04:13:25.317Z,94.03
2019-05-10T04:15:55.955Z,75.92
2019-05-10T04:18:26.379Z,77.37
2019-05-10T04:20:57.318Z,75.52
2019-05-10T04:23:27.858Z,80.70
2019-05-10T04:25:58.779Z,78.20
2019-05-10T04:28:29.722Z,80.57
2019-05-10T04:31:00.044Z,75.20
2019-05-10T04:33:30.572Z,80.40
2019-05-10T04:36:01.304Z,85.55
2019-05-10T04:38:31.832Z,83.83
2019-05-10T04:41:02.364Z,80.77
2019-05-10T04:43:32.888Z,78.90
2019-05-10T04:46:03.827Z,85.23
2019-05-10T04:48:34.363Z,79.83
2019-05-10T04:51:04.887Z,79.10
2019-05-10T04:53:35.207Z,83.72
2019-05-10T04:56:05.943Z,79.37
2019-05-10T04:58:36.469Z,80.07
2019-05-10T05:01:07.207Z,84.97
2019-05-10T05:03:37.952Z,84.30
2019-05-10T05:06:08.670Z,83.17
2019-05-10T05:08:39.199Z,81.93
2019-05-10T05:11:10.346Z,81.40
2019-05-10T05:13:40.876Z,79.05
2019-05-10T05:16:11.194Z,74.77
2019-05-10T05:18:42.746Z,78.23
2019-05-10T05:21:13.274Z,76.92
2019-05-10T05:23:44.007Z,80.05
2019-05-10T05:26:14.540Z,76.40
2019-05-10T05:28:45.478Z,85.70
2019-05-10T05:31:15.798Z,78.57
2019-05-10T05:33:46.329Z,82.55
2019-05-10T05:36:16.856Z,79.25
2019-05-10T05:38:49.527Z,88.12
2019-05-10T05:41:19.550Z,82.40
2019-05-10T05:43:50.084Z,87.63
2019-05-10T05:46:20.608Z,87.00
2019-05-10T05:48:51.531Z,90.38
2019-05-10T05:51:22.283Z,84.75
2019-05-10T05:53:52.819Z,84.65
2019-05-10T05:56:23.750Z,89.67
2019-05-10T05:58:54.274Z,90.45
2019-05-10T06:01:28.872Z,88.35
2019-05-10T06:04:00.208Z,92.55
2019-05-10T06:06:28.931Z,97.62
2019-05-10T06:09:00.012Z,95.07
2019-05-10T06:11:35.679Z,94.32
2019-05-10T06:14:10.937Z,91.17
2019-05-10T06:16:38.424Z,91.37
2019-05-10T06:19:08.647Z,105.58
2019-05-10T06:21:39.687Z,100.35
2019-05-10T06:24:13.604Z,98.17
2019-05-10T06:26:41.966Z,86.57
2019-05-10T06:29:17.507Z,86.97
2019-05-10T06:31:49.582Z,81.60
2019-05-10T06:34:20.106Z,88.12
2019-05-10T06:36:50.434Z,93.55
2019-05-10T06:39:20.958Z,92.35
2019-05-10T06:41:55.945Z,89.22
2019-05-10T06:44:25.096Z,83.37
2019-05-10T06:46:55.006Z,84.83
2019-05-10T06:49:25.529Z,98.45
2019-05-10T06:51:56.267Z,89.65
2019-05-10T06:54:26.792Z,81.32
2019-05-10T06:56:57.940Z,81.25
2019-05-10T06:59:28.463Z,81.37
2019-05-10T07:01:58.992Z,82.42
2019-05-10T07:04:34.322Z,78.33
2019-05-10T07:07:01.488Z,75.40
2019-05-10T07:10:00.296Z,79.75
2019-05-10T07:12:09.397Z,81.30
2019-05-10T07:14:43.055Z,71.75
2019-05-10T07:17:09.131Z,73.67
2019-05-10T07:19:41.628Z,69.85
2019-05-10T07:22:11.628Z,70.25
2019-05-10T07:24:42.148Z,71.28
2019-05-10T07:27:12.686Z,73.70
2019-05-10T07:29:46.110Z,69.00
2019-05-10T07:32:16.398Z,77.67
2019-05-10T07:34:48.887Z,63.63
2019-05-10T07:37:19.501Z,70.00
2019-05-10T07:39:50.027Z,70.78
2019-05-10T07:42:20.564Z,70.22
2019-05-10T07:44:51.092Z,70.80
2019-05-10T07:47:24.008Z,70.05
2019-05-10T07:49:53.370Z,71.45
2019-05-10T07:52:24.310Z,73.47
2019-05-10T07:54:55.453Z,71.40
2019-05-10T07:57:27.120Z,70.30
2019-05-10T08:00:03.104Z,75.28
2019-05-10T08:02:29.495Z,72.20
2019-05-10T08:05:04.943Z,71.65
2019-05-10T08:07:31.781Z,68.95
2019-05-10T08:10:04.721Z,63.90
2019-05-10T08:12:35.302Z,73.42
2019-05-10T08:15:10.334Z,70.62
2019-05-10T08:17:45.374Z,68.75
2019-05-10T08:20:20.382Z,67.92
2019-05-10T08:22:46.207Z,73.83
2019-05-10T08:25:17.568Z,68.47
2019-05-10T08:27:50.410Z,68.20
2019-05-10T08:30:28.805Z,68.07
2019-05-10T08:32:55.298Z,66.15
2019-05-10T08:35:26.235Z,71.90
2019-05-10T08:37:56.555Z,70.03
2019-05-10T08:40:34.304Z,70.83
2019-05-10T08:43:06.547Z,69.67
2019-05-10T08:45:32.499Z,59.98
2019-05-10T08:48:06.932Z,60.38
2019-05-10T08:50:49.681Z,63.63
2019-05-10T08:53:10.752Z,59.03
2019-05-10T08:55:39.680Z,59.98
2019-05-10T08:58:12.241Z,57.88
2019-05-10T09:00:54.131Z,56.48
2019-05-10T09:03:18.267Z,51.70
2019-05-10T09:05:45.686Z,47.05
2019-05-10T09:08:19.944Z,48.35
2019-05-10T09:10:47.973Z,44.83
2019-05-10T09:13:18.495Z,48.90
2019-05-10T09:15:56.012Z,43.28
2019-05-10T09:18:22.753Z,43.68
2019-05-10T09:20:54.243Z,46.48
2019-05-10T09:23:24.911Z,43.45
2019-05-10T09:25:55.440Z,42.83
2019-05-10T09:28:25.968Z,44.58
2019-05-10T09:31:01.225Z,38.83
2019-05-10T09:33:28.259Z,39.38
2019-05-10T09:35:59.310Z,41.00
2019-05-10T09:38:37.173Z,41.02
2019-05-10T09:41:02.556Z,43.13
2019-05-10T09:43:33.445Z,46.33
2019-05-10T09:46:03.769Z,46.40
2019-05-10T09:48:34.297Z,45.83
2019-05-10T09:51:04.827Z,43.65
2019-05-10T09:53:38.021Z,45.48
2019-05-10T09:56:07.911Z,46.42
2019-05-10T09:58:38.792Z,47.80
2019-05-10T10:01:17.724Z,49.27
2019-05-10T10:03:43.691Z,45.30
2019-05-10T10:06:13.319Z,44.42
2019-05-10T10:08:48.573Z,45.45
2019-05-10T10:11:18.168Z,46.83
2019-05-10T10:13:50.173Z,56.68
2019-05-10T10:16:19.940Z,50.25
2019-05-10T10:18:50.486Z,49.33
2019-05-10T10:21:30.565Z,45.00
2019-05-10T10:23:52.755Z,50.08
2019-05-10T10:26:23.279Z,55.78
2019-05-10T10:28:54.948Z,51.63
2019-05-10T10:31:30.458Z,54.70
2019-05-10T10:33:59.659Z,51.98
2019-05-10T10:36:29.491Z,53.83
2019-05-10T10:39:00.019Z,46.73
2019-05-10T10:41:31.754Z,54.00
2019-05-10T10:44:02.305Z,52.95
2019-05-10T10:46:34.549Z,50.60
2019-05-10T10:49:05.538Z,51.70
2019-05-10T10:51:37.922Z,57.20
2019-05-10T10:54:08.112Z,50.52
2019-05-10T10:56:38.838Z,49.08
2019-05-10T10:59:09.071Z,51.25
2019-05-10T11:01:50.027Z,52.78
2019-05-10T11:04:11.857Z,49.48
2019-05-10T11:06:42.186Z,52.65
2019-05-10T11:09:12.709Z,52.70
2019-05-10T11:11:44.704Z,49.38
2019-05-10T11:14:15.404Z,46.75
2019-05-10T11:16:46.615Z,48.30
2019-05-10T11:19:20.328Z,55.40
2019-05-10T11:21:51.429Z,46.63
2019-05-10T11:24:22.926Z,45.50
2019-05-10T11:26:53.988Z,44.03
2019-05-10T11:29:27.795Z,41.50
2019-05-10T11:32:12.271Z,36.93
2019-05-10T11:34:36.791Z,39.20
2019-05-10T11:37:00.812Z,40.40
2019-05-10T11:39:40.267Z,38.65
2019-05-10T11:42:07.146Z,41.83
2019-05-10T11:44:41.404Z,48.00
2019-05-10T11:47:20.921Z,40.33
2019-05-10T11:49:40.648Z,39.60
2019-05-10T11:52:13.217Z,40.73
2019-05-10T11:54:43.168Z,35.88
2019-05-10T11:57:13.999Z,38.53
2019-05-10T11:59:44.572Z,38.02
2019-05-10T12:02:33.900Z,40.48
2019-05-10T12:04:47.277Z,41.68
2019-05-10T12:07:24.598Z,38.25
2019-05-10T12:09:55.657Z,37.08
2019-05-10T12:12:29.683Z,36.20
2019-05-10T12:14:56.659Z,35.05
2019-05-10T12:17:27.348Z,31.35
2019-05-10T12:19:57.823Z,28.70
2019-05-10T12:22:38.184Z,31.30
2019-05-10T12:25:23.833Z,33.58
2019-05-10T12:27:43.962Z,29.35
2019-05-10T12:30:06.487Z,28.50
2019-05-10T12:32:46.854Z,27.87
2019-05-10T12:35:11.521Z,31.20
2019-05-10T12:37:46.518Z,27.80
2019-05-10T12:40:15.407Z,29.55
2019-05-10T12:42:47.191Z,41.77
2019-05-10T12:45:22.977Z,37.38
2019-05-10T12:47:51.760Z,37.08
2019-05-10T12:50:23.435Z,35.08
2019-05-10T12:53:03.194Z,39.90
2019-05-10T12:55:26.313Z,30.60
2019-05-10T12:57:56.642Z,29.67
2019-05-10T13:00:27.171Z,20.57
2019-05-10T13:03:11.582Z,24.20
2019-05-10T13:05:31.935Z,23.65
2019-05-10T13:08:01.415Z,24.85
2019-05-10T13:10:37.285Z,22.27
2019-05-10T13:13:05.957Z,20.75
2019-05-10T13:15:36.459Z,22.98
2019-05-10T13:18:07.021Z,23.47
2019-05-10T13:20:38.747Z,23.35
2019-05-10T13:23:09.938Z,26.45
2019-05-10T13:25:42.078Z,23.90
2019-05-10T13:28:12.608Z,28.57
2019-05-10T13:30:43.754Z,23.73
2019-05-10T13:33:27.737Z,26.57
2019-05-10T13:35:50.951Z,24.87
2019-05-10T13:38:18.416Z,26.82
2019-05-10T13:40:48.949Z,23.45
2019-05-10T13:43:26.712Z,28.65
2019-05-10T13:45:51.431Z,24.77
2019-05-10T13:48:25.842Z,25.08
2019-05-10T13:50:53.921Z,26.62
2019-05-10T13:53:24.130Z,27.05
2019-05-10T13:55:55.596Z,28.87
2019-05-10T13:58:26.536Z,28.17
2019-05-10T14:00:57.888Z,23.50
2019-05-10T14:03:43.259Z,23.83
2019-05-10T14:06:05.075Z,29.40
2019-05-10T14:08:35.603Z,23.73
2019-05-10T14:11:06.132Z,26.27
2019-05-10T14:13:41.591Z,20.70
2019-05-10T14:16:18.299Z,23.77
2019-05-10T14:18:44.890Z,21.93
2019-05-10T14:21:15.209Z,20.55
2019-05-10T14:23:46.154Z,23.10
2019-05-10T14:26:18.272Z,22.10
2019-05-10T14:28:52.935Z,25.60
2019-05-10T14:31:20.610Z,20.95
2019-05-10T14:34:14.030Z,22.60
2019-05-10T14:36:23.709Z,20.90
2019-05-10T14:38:56.143Z,24.98
2019-05-10T14:41:26.401Z,27.87
2019-05-10T14:43:56.929Z,25.95
2019-05-10T14:46:27.463Z,24.72
2019-05-10T14:49:09.211Z,28.55
2019-05-10T14:51:44.102Z,25.40
2019-05-10T14:54:07.118Z,24.30
2019-05-10T14:56:33.875Z,20.02
2019-05-10T14:59:04.409Z,26.50
2019-05-10T15:01:36.705Z,23.60
2019-05-10T15:04:07.716Z,20.95
2019-05-10T15:06:39.026Z,23.47
2019-05-10T15:09:20.473Z,24.52
2019-05-10T15:11:41.772Z,23.62
2019-05-10T15:14:12.908Z,22.37
2019-05-10T15:16:43.222Z,25.60
2019-05-10T15:19:13.754Z,26.05
2019-05-10T15:21:45.718Z,25.95
2019-05-10T15:24:16.241Z,23.90
2019-05-10T15:26:48.209Z,25.70
2019-05-10T15:29:24.547Z,32.17
2019-05-10T15:31:54.790Z,24.52
2019-05-10T15:34:25.118Z,26.17
2019-05-10T15:37:02.305Z,27.25
2019-05-10T15:39:30.515Z,22.98
2019-05-10T15:42:01.204Z,26.75
2019-05-10T15:44:33.694Z,22.60
2019-05-10T15:47:03.495Z,24.37
2019-05-10T15:49:33.814Z,24.20
2019-05-10T15:52:16.740Z,29.15
2019-05-10T15:54:38.175Z,23.15
2019-05-10T15:57:08.693Z,31.40
2019-05-10T15:59:39.414Z,24.15
2019-05-10T16:02:10.143Z,21.87
2019-05-10T16:04:40.578Z,21.90
2019-05-10T16:07:14.444Z,24.35
2019-05-10T16:09:42.289Z,21.33
2019-05-10T16:12:14.108Z,21.23
2019-05-10T16:14:45.697Z,25.32
2019-05-10T16:17:18.525Z,25.77
2019-05-10T16:19:51.014Z,21.30
2019-05-10T16:22:25.344Z,27.77
2019-05-10T16:24:52.278Z,24.75
2019-05-10T16:27:22.806Z,24.50
2019-05-10T16:29:53.335Z,23.83
2019-05-10T16:32:29.403Z,21.37
2019-05-10T16:34:56.027Z,24.05
2019-05-10T16:37:26.343Z,20.32
2019-05-10T16:39:56.741Z,19.50
2019-05-10T16:42:27.658Z,19.90
2019-05-10T16:44:58.530Z,20.43
2019-05-10T16:47:28.665Z,26.57
2019-05-10T16:49:58.691Z,25.10
2019-05-10T16:52:28.749Z,23.83
2019-05-10T16:55:03.740Z,21.87
2019-05-10T16:57:31.896Z,29.18
2019-05-10T17:00:08.120Z,25.75
2019-05-10T17:02:36.730Z,24.70
2019-05-10T17:05:09.609Z,29.48
2019-05-10T17:07:40.225Z,31.35
2019-05-10T17:10:10.559Z,31.57
2019-05-10T17:12:40.536Z,25.62
2019-05-10T17:15:11.045Z,27.15
2019-05-10T17:17:44.414Z,29.70
2019-05-10T17:20:15.856Z,31.55
2019-05-10T17:22:44.628Z,33.28
2019-05-10T17:25:15.104Z,33.38
2019-05-10T17:27:50.591Z,29.32
2019-05-10T17:30:21.632Z,32.17
2019-05-10T17:32:48.870Z,33.73
2019-05-10T17:35:18.932Z,36.33
2019-05-10T17:37:49.021Z,31.87
2019-05-10T17:40:19.447Z,37.85
2019-05-10T17:42:51.522Z,38.92
2019-05-10T17:45:21.280Z,33.20
2019-05-10T17:47:51.320Z,31.30
2019-05-10T17:50:21.405Z,28.25
2019-05-10T17:52:51.459Z,19.95
2019-05-10T17:55:21.575Z,32.42
2019-05-10T17:57:54.635Z,14.30
2019-05-10T18:00:23.395Z,11.63
2019-05-10T18:02:53.443Z,11.57
2019-05-10T18:05:23.492Z,18.17
2019-05-10T18:07:53.487Z,9.45
2019-05-10T18:10:23.595Z,12.63
2019-05-10T18:12:57.454Z,12.55
2019-05-10T18:15:27.731Z,26.50
2019-05-10T18:17:57.608Z,11.45
2019-05-10T18:20:28.656Z,11.50
2019-05-10T18:22:58.710Z,10.48
2019-05-10T18:25:28.773Z,13.90
2019-05-10T18:27:58.984Z,22.85
2019-05-10T18:30:29.089Z,13.85
2019-05-10T18:32:59.143Z,16.82
2019-05-10T18:35:29.264Z,18.82
2019-05-10T18:38:00.806Z,14.65
2019-05-10T18:40:32.112Z,16.80
2019-05-10T18:43:04.456Z,16.10
2019-05-10T18:45:34.382Z,19.15
2019-05-10T18:48:04.679Z,17.55
2019-05-10T18:50:39.558Z,19.90
2019-05-10T18:53:07.058Z,53.95
2019-05-10T18:55:37.135Z,110.55
2019-05-10T18:58:07.205Z,121.72
2019-05-10T19:00:40.122Z,58.28
2019-05-10T19:03:08.933Z,21.35
2019-05-10T19:05:38.973Z,38.13
2019-05-10T19:08:09.536Z,34.43
2019-05-10T19:10:40.061Z,40.78
2019-05-10T19:13:11.961Z,27.05
2019-05-10T19:15:46.253Z,22.25
2019-05-10T19:18:17.824Z,14.35
2019-05-10T19:20:48.870Z,19.95
2019-05-10T19:23:21.613Z,19.15
2019-05-10T19:25:54.001Z,16.87
2019-05-10T19:28:26.924Z,17.87
2019-05-10T19:30:58.567Z,21.65
2019-05-10T19:33:36.018Z,21.75
2019-05-10T19:36:01.115Z,16.50
2019-05-10T19:38:31.444Z,19.77
2019-05-10T19:41:01.972Z,20.72
2019-05-10T19:43:33.724Z,24.47
2019-05-10T19:46:04.463Z,19.98
2019-05-10T19:48:36.920Z,17.80
2019-05-10T19:51:09.503Z,21.23
2019-05-10T19:53:42.427Z,20.85
2019-05-10T19:56:11.723Z,21.00
2019-05-10T19:58:42.008Z,30.70
2019-05-10T20:01:13.984Z,29.45
2019-05-10T20:03:44.304Z,25.92
2019-05-10T20:06:16.269Z,29.65
2019-05-10T20:08:47.012Z,28.38
2019-05-10T20:11:17.951Z,28.62
2019-05-10T20:13:48.876Z,29.30
2019-05-10T20:16:19.812Z,30.70
2019-05-10T20:18:50.545Z,34.63
2019-05-10T20:21:21.081Z,33.63
2019-05-10T20:23:51.607Z,36.63
2019-05-10T20:26:22.344Z,34.53
2019-05-10T20:28:54.709Z,31.30
2019-05-10T20:31:25.241Z,32.23
2019-05-10T20:33:55.764Z,35.80
2019-05-10T20:36:26.089Z,38.08
2019-05-10T20:38:56.538Z,46.53
2019-05-10T20:41:27.355Z,73.85
2019-05-10T20:43:58.434Z,71.17
2019-05-10T20:46:28.975Z,78.45
2019-05-10T20:48:59.960Z,78.25
2019-05-10T20:51:30.493Z,62.17
2019-05-10T20:54:03.481Z,61.15
2019-05-10T20:56:34.622Z,51.13
2019-05-10T20:59:05.767Z,50.70
2019-05-10T21:01:36.699Z,54.90
2019-05-10T21:04:07.228Z,52.85
2019-05-10T21:06:37.576Z,56.15
2019-05-10T21:09:09.923Z,124.12
2019-05-10T21:11:40.474Z,133.18
2019-05-10T21:14:22.918Z,140.00
2019-05-10T21:16:53.388Z,185.00
2019-05-10T21:19:23.924Z,209.70
2019-05-10T21:21:54.242Z,216.73
2019-05-10T21:24:24.769Z,241.55
2019-05-10T21:26:55.257Z,184.52
2019-05-10T21:29:25.312Z,205.27
2019-05-10T21:31:56.823Z,181.07
2019-05-10T21:34:26.850Z,134.93
2019-05-10T21:36:57.980Z,102.02
2019-05-10T21:39:28.566Z,85.95
2019-05-10T21:41:59.083Z,77.95
2019-05-10T21:44:29.683Z,73.05
2019-05-10T21:47:03.776Z,74.58
2019-05-10T21:49:39.982Z,67.37
2019-05-10T21:52:10.208Z,61.70
2019-05-10T21:54:41.152Z,44.00
2019-05-10T21:57:11.508Z,45.67
2019-05-10T21:59:42.209Z,49.80
2019-05-10T22:02:13.962Z,42.45
2019-05-10T22:04:47.735Z,43.80
2019-05-10T22:07:16.184Z,38.83
2019-05-10T22:09:47.390Z,38.33
2019-05-10T22:12:17.791Z,45.80
2019-05-10T22:14:48.135Z,49.75
2019-05-10T22:17:18.779Z,47.17
2019-05-10T22:19:48.842Z,40.83
2019-05-10T22:22:18.868Z,44.95
2019-05-10T22:24:48.895Z,45.63
2019-05-10T22:27:18.979Z,51.65
2019-05-10T22:29:49.001Z,45.73
2019-05-10T22:32:19.110Z,46.28
2019-05-10T22:34:49.122Z,47.38
2019-05-10T22:37:19.178Z,47.30
2019-05-10T22:39:49.431Z,40.05
2019-05-10T22:42:19.965Z,45.63
2019-05-10T22:44:50.284Z,75.40
2019-05-10T22:47:20.611Z,75.78
2019-05-10T22:49:51.142Z,63.28
2019-05-10T22:52:21.462Z,50.95
2019-05-10T22:55:04.141Z,51.25
2019-05-10T22:57:34.401Z,53.42
2019-05-10T23:00:09.641Z,48.25
2019-05-10T23:02:40.168Z,53.17
2019-05-10T23:05:10.887Z,48.25
2019-05-10T23:07:41.220Z,52.80
2019-05-10T23:10:11.953Z,54.50
2019-05-10T23:12:42.277Z,72.50
2019-05-10T23:15:12.810Z,141.47
2019-05-10T23:17:43.338Z,75.40
2019-05-10T23:20:14.020Z,57.15
2019-05-10T23:22:44.396Z,50.10
2019-05-10T23:25:14.920Z,43.07
2019-05-10T23:27:45.453Z,40.92
2019-05-10T23:30:15.983Z,62.15
2019-05-10T23:32:46.505Z,94.53
2019-05-10T23:35:17.039Z,101.65
2019-05-10T23:37:47.565Z,135.37
2019-05-10T23:40:18.500Z,125.05
2019-05-10T23:42:48.825Z,110.45
2019-05-10T23:45:19.357Z,111.90
2019-05-10T23:47:49.888Z,114.93
2019-05-10T23:50:20.211Z,127.80
2019-05-10T23:52:50.741Z,153.55
2019-05-10T23:55:21.089Z,104.43
2019-05-10T23:57:51.595Z,57.40
